Belmullet, Ireland
Current Conditions -  °F | °C
As of 8:30 AM on Saturday 25 Oct 2014 (Local Time) from EIKN Reporting Station
Rain Showers Rain Showers  
Wind Chill: 43°   Ceiling: 3400
Heat Index: 48°   Visibility: 6mi
Dew Point: 45°   Wind: 14mph
Humidity: 87%   Direction: 220°SW
Pressure: 29.77"   Gusts: NA
Location:  54.22°N, 10.01°W
Report Text: EIKN 250830Z 22012KT 180V240 9999 -SHRA SCT015 BKN034 09/07 Q1008 NOSIG
Loading
Personal Weather Stations






























Interactive Weather Map New forecast layout! Learn more

10-Day Weather Forecast

Advertisements
Track Severe Weather on mobile